Buies Creek, North Carolina
Current Conditions -  °F | °C
As of 12:15 PM on Sunday 23 Nov 2014 (Local Time) from KHRJ Reporting Station
Drizzle Drizzle  
Wind Chill: 52°   Ceiling: 7500
Heat Index: 52°   Visibility: 10mi
Dew Point: 49°   Wind: 3mph
Humidity: 89%   Direction: 80°E
Pressure: 30.13"   Gusts: NA
Location:  35.41°N, 78.74°W
Report Text: KHRJ 231715Z AUTO 08003KT 10SM -DZ SCT029 BKN075 OVC100 11/10 A3013 RMK AO2 T01120095
Loading
Personal Weather Stations






























Interactive Weather Map New forecast layout! Learn more

10-Day Weather Forecast

Advertisements
Track Severe Weather on mobile